Meteorología y climatología de Navarra
Datos de la estación - Meteo Navarra

Estación de Bera (Larrategaña) GN

Altitud 306 m.


Datos desde el 11/10/2018 hasta el 12/10/2018 en horario solar
Los datos son PROVISIONALES

Anterior Página 1 de 1 Siguiente Descargar: Formato para Excel 2000 o superior   Formato csv   Formato para OpenOffice Calc
Fecha Temperatura Humedad relativa Radiación global Insolación Precipitación Velocidad viento 10 m Velocidad viento 10 m Dirección viento 10 m
ºC % W/m² s l/m² m/s km/h º
11/10/2018 0:00 18.7 62 0.0 0 0.0 9.0 32.5 215
11/10/2018 0:10 18.6 63 0.0 0 0.0 8.8 31.6 217
11/10/2018 0:20 18.5 63 0.0 0 0.0 10.7 38.6 213
11/10/2018 0:30 18.8 62 0.0 0 0.0 11.2 40.3 213
11/10/2018 0:40 18.8 62 0.0 0 0.0 9.5 34.2 217
11/10/2018 0:50 18.5 63 0.0 0 0.0 7.2 25.7 214
11/10/2018 1:00 18.6 63 0.0 0 0.0 7.4 26.5 219
11/10/2018 1:10 18.8 62 0.0 0 0.0 8.3 29.9 216
11/10/2018 1:20 18.9 61 0.0 0 0.0 8.5 30.7 219
11/10/2018 1:30 18.9 62 0.0 0 0.0 6.7 24.0 221
11/10/2018 1:40 18.9 62 0.0 0 0.0 8.2 29.4 215
11/10/2018 1:50 19.0 62 0.0 0 0.0 7.9 28.3 215
11/10/2018 2:00 18.9 62 0.0 0 0.0 7.2 25.9 211
11/10/2018 2:10 18.9 63 0.0 0 0.0 7.3 26.4 212
11/10/2018 2:20 18.9 63 0.0 0 0.0 7.5 26.9 215
11/10/2018 2:30 19.1 62 0.0 0 0.0 7.5 26.9 218
11/10/2018 2:40 19.2 62 0.0 0 0.0 8.4 30.4 214
11/10/2018 2:50 19.4 61 0.0 0 0.0 7.8 28.0 215
11/10/2018 3:00 19.6 60 0.0 0 0.0 7.6 27.5 214
11/10/2018 3:10 19.7 59 0.0 0 0.0 7.6 27.3 215
11/10/2018 3:20 19.7 59 0.0 0 0.0 8.7 31.4 214
11/10/2018 3:30 19.8 59 0.0 0 0.0 9.2 33.1 213
11/10/2018 3:40 19.8 59 0.0 0 0.0 8.9 31.9 214
11/10/2018 3:50 19.5 60 0.0 0 0.0 8.3 30.0 214
11/10/2018 4:00 19.8 59 0.0 0 0.0 8.8 31.6 216
11/10/2018 4:10 19.9 59 0.0 0 0.0 8.6 30.8 215
11/10/2018 4:20 20.0 59 0.0 0 0.0 8.5 30.4 219
11/10/2018 4:30 19.9 58 0.0 0 0.0 8.0 28.6 209
11/10/2018 4:40 20.1 58 0.0 0 0.0 9.0 32.5 210
11/10/2018 4:50 20.1 58 0.0 0 0.0 8.8 31.7 209
11/10/2018 5:00 20.2 58 0.0 0 0.0 8.1 29.1 210
11/10/2018 5:10 20.0 58 0.0 0 0.0 8.5 30.4 209
11/10/2018 5:20 19.9 59 0.0 0 0.0 7.4 26.8 208
11/10/2018 5:30 19.8 59 0.0 0 0.0 7.1 25.5 206
11/10/2018 5:40 19.6 60 0.0 0 0.0 7.8 28.2 208
11/10/2018 5:50 19.9 60 0.0 0 0.0 9.0 32.5 207
11/10/2018 6:00 19.8 60 0.0 0 0.0 8.3 29.9 203
11/10/2018 6:10 19.8 60 0.0 0 0.0 6.6 23.6 204
11/10/2018 6:20 19.7 61 0.0 0 0.0 6.1 22.0 215
11/10/2018 6:30 19.5 62 6.2 0 0.0 4.3 15.5 206
11/10/2018 6:40 19.7 61 19.9 0 0.0 7.2 26.0 200
11/10/2018 6:50 19.8 61 26.3 0 0.0 7.3 26.2 208
11/10/2018 7:00 19.8 60 26.6 0 0.0 7.3 26.4 204
11/10/2018 7:10 19.9 60 23.3 0 0.0 7.7 27.8 204
11/10/2018 7:20 19.7 61 25.1 0 0.0 6.4 23.0 208
11/10/2018 7:30 19.7 61 29.0 0 0.0 8.2 29.3 205
11/10/2018 7:40 19.7 62 37.8 0 0.0 7.7 27.5 209
11/10/2018 7:50 19.7 62 52.5 0 0.0 8.7 31.2 205
11/10/2018 8:00 19.8 62 57.2 0 0.0 8.6 30.9 209
11/10/2018 8:10 19.6 62 62.8 0 0.0 8.6 31.1 209
11/10/2018 8:20 19.8 62 75.3 0 0.0 7.6 27.2 212
11/10/2018 8:30 19.7 63 74.6 0 0.0 7.3 26.1 215
11/10/2018 8:40 19.7 63 68.4 0 0.0 8.5 30.7 213
11/10/2018 8:50 19.9 62 92.0 0 0.0 8.6 30.9 209
11/10/2018 9:00 20.2 61 101.4 0 0.0 8.9 32.1 211
11/10/2018 9:10 20.3 60 87.7 0 0.0 8.6 30.8 209
11/10/2018 9:20 20.5 60 126.3 0 0.0 8.5 30.7 207
11/10/2018 9:30 20.8 58 173.2 0 0.0 9.3 33.4 210
11/10/2018 9:40 21.0 57 173.6 0 0.0 8.7 31.4 202
11/10/2018 9:50 21.4 56 148.9 0 0.0 8.6 31.1 212
11/10/2018 10:00 21.4 56 130.0 0 0.0 8.6 30.8 207
11/10/2018 10:10 21.5 56 165.2 0 0.0 7.3 26.3 206
11/10/2018 10:20 21.6 56 174.6 0 0.0 8.2 29.4 211
11/10/2018 10:30 21.8 55 128.3 0 0.0 7.9 28.5 209
11/10/2018 10:40 21.8 56 122.9 0 0.0 5.6 20.1 207
11/10/2018 10:50 22.0 55 138.4 0 0.0 6.6 23.6 209
11/10/2018 11:00 22.1 55 188.3 0 0.0 6.9 24.9 205
11/10/2018 11:10 22.4 54 250.4 0 0.0 8.9 31.9 202
11/10/2018 11:20 22.6 53 238.1 0 0.0 10.4 37.3 202
11/10/2018 11:30 22.6 53 269.9 0 0.0 10.0 35.8 204
11/10/2018 11:40 22.7 53 279.7 0 0.0 8.9 32.1 202
11/10/2018 11:50 22.8 53 268.2 0 0.0 8.5 30.7 196
11/10/2018 12:00 22.8 53 289.6 0 0.0 8.9 32.1 200
11/10/2018 12:10 22.8 53 255.0 0 0.0 8.3 30.0 196
11/10/2018 12:20 22.7 54 192.4 0 0.0 7.1 25.4 197
11/10/2018 12:30 22.5 54 179.5 0 0.0 6.4 23.0 197
11/10/2018 12:40 22.5 55 163.9 0 0.0 5.8 20.8 200
11/10/2018 12:50 22.3 56 152.0 0 0.0 5.9 21.1 202
11/10/2018 13:00 22.3 56 159.7 0 0.0 4.9 17.7 197
11/10/2018 13:10 22.7 56 386.5 376 0.0 5.3 19.1 202
11/10/2018 13:20 23.1 54 413.4 600 0.0 5.6 20.2 207
11/10/2018 13:30 23.1 54 336.0 294 0.0 7.4 26.5 204
11/10/2018 13:40 23.9 53 769.0 600 0.0 6.9 24.9 203
11/10/2018 13:50 23.8 52 491.9 430 0.0 7.9 28.3 204
11/10/2018 14:00 24.3 52 518.5 484 0.0 5.8 20.8 199
11/10/2018 14:10 24.4 52 511.6 500 0.0 4.9 17.5 204
11/10/2018 14:20 24.1 52 346.9 384 0.0 5.4 19.4 193
11/10/2018 14:30 23.8 53 422.1 406 0.0 5.2 18.8 205
11/10/2018 14:40 24.7 51 473.5 600 0.0 5.4 19.5 205
11/10/2018 14:50 24.1 53 135.1 28 0.0 4.8 17.4 201
11/10/2018 15:00 23.1 55 65.2 0 0.0 6.0 21.5 208
11/10/2018 15:10 22.9 56 65.7 0 0.0 4.8 17.2 211
11/10/2018 15:20 22.7 57 37.8 0 0.0 4.7 17.0 220
11/10/2018 15:30 21.7 64 37.2 0 0.0 3.7 13.1 217
11/10/2018 15:40 20.9 69 29.3 0 0.1 3.0 10.9 214
11/10/2018 15:50 21.1 67 21.9 0 0.0 2.7 9.6 246
11/10/2018 16:00 21.1 69 44.8 0 0.0 3.0 10.8 228
11/10/2018 16:10 20.5 74 84.3 0 0.1 2.8 9.9 221
11/10/2018 16:20 19.9 81 71.4 0 0.0 2.5 9.0 224
11/10/2018 16:30 19.4 83 47.8 0 0.0 3.0 10.8 238
11/10/2018 16:40 20.4 74 32.6 0 0.0 2.2 7.8 233
11/10/2018 16:50 19.6 83 21.8 0 0.0 1.0 3.6 16
11/10/2018 17:00 19.6 80 5.3 0 0.0 1.5 5.3 305
11/10/2018 17:10 20.0 78 0.0 0 0.0 3.5 12.6 298
11/10/2018 17:20 19.5 83 0.0 0 0.0 3.6 12.9 296
11/10/2018 17:30 19.0 86 0.0 0 0.0 4.5 16.3 292
11/10/2018 17:40 18.9 85 0.0 0 0.0 2.6 9.2 292
11/10/2018 17:50 19.4 81 0.0 0 0.0 3.5 12.6 307
11/10/2018 18:00 18.3 91 0.0 0 0.0 1.4 5.0 2
11/10/2018 18:10 17.9 93 0.0 0 0.0 2.1 7.5 330
11/10/2018 18:20 17.8 94 0.0 0 0.0 2.3 8.2 337
11/10/2018 18:30 17.4 95 0.0 0 0.0 2.0 7.0 7
11/10/2018 18:40 16.9 95 0.0 0 0.0 3.1 11.1 331
11/10/2018 18:50 17.0 95 0.0 0 0.0 1.9 6.8 331
11/10/2018 19:00 16.8 95 0.0 0 0.0 1.9 6.7 338
11/10/2018 19:10 16.7 95 0.0 0 0.0 2.2 7.8 337
11/10/2018 19:20 16.5 95 0.0 0 0.0 1.5 5.4 347
11/10/2018 19:30 16.4 95 0.0 0 0.0 0.9 3.1 349
11/10/2018 19:40 16.4 95 0.0 0 0.0 2.3 8.3 301
11/10/2018 19:50 16.3 95 0.0 0 0.0 2.2 8.0 312
11/10/2018 20:00 16.2 95 0.0 0 0.0 0.8 2.8 14
11/10/2018 20:10 16.2 95 0.0 0 0.0 0.4 1.4 98
11/10/2018 20:20 16.1 95 0.0 0 0.0 0.2 0.9 73
11/10/2018 20:30 16.0 95 0.0 0 0.0 1.2 4.2 241
11/10/2018 20:40 15.9 95 0.0 0 0.0 0.9 3.1 264
11/10/2018 20:50 15.8 95 0.0 0 0.0 0.1 0.3 59
11/10/2018 21:00 15.8 95 0.0 0 0.0 0.6 2.3 108
11/10/2018 21:10 16.0 95 0.0 0 0.0 0.3 1.0 226
11/10/2018 21:20 16.2 95 0.0 0 0.0 0.5 1.7 295
11/10/2018 21:30 16.0 95 0.0 0 0.0 0.4 1.5 258
11/10/2018 21:40 16.3 95 0.0 0 0.0 0.3 0.9 204
11/10/2018 21:50 16.2 95 0.0 0 0.0 0.7 2.5 90
11/10/2018 22:00 16.3 95 0.0 0 0.0 0.6 2.1 105
11/10/2018 22:10 17.4 92 0.0 0 0.0 0.4 1.4 137
11/10/2018 22:20 18.7 82 0.0 0 0.0 2.1 7.6 228
11/10/2018 22:30 18.8 82 0.0 0 0.0 2.2 7.8 231
11/10/2018 22:40 18.4 84 0.0 0 0.0 2.2 8.0 231
11/10/2018 22:50 18.5 83 0.0 0 0.0 2.6 9.2 228
11/10/2018 23:00 18.6 82 0.0 0 0.0 3.7 13.4 225
11/10/2018 23:10 18.6 81 0.0 0 0.0 3.5 12.7 224
11/10/2018 23:20 18.7 81 0.0 0 0.0 3.6 13.0 228
11/10/2018 23:30 18.8 80 0.0 0 0.0 3.9 14.2 229
11/10/2018 23:40 19.3 77 0.0 0 0.0 3.8 13.6 224
11/10/2018 23:50 19.3 76 0.0 0 0.0 3.9 14.0 217
Anterior Página 1 de 1 Siguiente

NOTA: Tipo de datos según el color:
   - Valores diarios o 10 minutos correctos
   - Valores diarios calculados a partir de un número de datos 10 minutos menor que 144 y mayor que 120, o de un número de datos semihorarios menor que 48 y mayor que 40 (caso de las estaciones de Riegos de Navarra y del MARM)
   - Valores diez minutos estimados


Contacto        Enlaces        Aviso legal